createdAt,value
2018-05-01T00:03:13.408Z,2.10
2018-05-01T00:08:16.952Z,1.80
2018-05-01T00:13:21.656Z,1.65
2018-05-01T00:18:24.446Z,3.07
2018-05-01T00:23:27.228Z,2.17
2018-05-01T00:28:30.025Z,1.00
2018-05-01T00:33:34.425Z,1.20
2018-05-01T00:38:38.076Z,1.17
2018-05-01T00:43:40.843Z,1.42
2018-05-01T00:48:43.620Z,1.73
2018-05-01T00:53:46.393Z,1.80
2018-05-01T00:58:51.075Z,1.37
2018-05-01T01:03:54.057Z,1.55
2018-05-01T01:08:57.675Z,1.77
2018-05-01T01:14:01.293Z,1.10
2018-05-01T01:19:04.095Z,1.00
2018-05-01T01:24:08.488Z,1.08
2018-05-01T01:29:11.891Z,1.40
2018-05-01T01:34:14.685Z,1.10
2018-05-01T01:39:16.930Z,1.70
2018-05-01T01:44:19.964Z,1.60
2018-05-01T01:49:22.278Z,1.03
2018-05-01T01:54:24.522Z,1.10
2018-05-01T01:59:27.754Z,1.43
2018-05-01T02:04:30.786Z,1.50
2018-05-01T02:09:34.069Z,3.60
2018-05-01T02:14:36.337Z,2.20
2018-05-01T02:19:38.590Z,1.80
2018-05-01T02:24:40.854Z,3.55
2018-05-01T02:29:43.122Z,2.10
2018-05-01T02:34:47.134Z,2.03
2018-05-01T02:39:50.158Z,2.12
2018-05-01T02:44:56.955Z,2.08
2018-05-01T02:50:00.030Z,1.90
2018-05-01T02:55:02.625Z,2.15
2018-05-01T03:00:05.704Z,2.20
2018-05-01T03:05:08.575Z,1.80
2018-05-01T03:10:13.159Z,1.60
2018-05-01T03:15:18.296Z,1.70
2018-05-01T03:20:20.720Z,1.50
2018-05-01T03:25:23.006Z,1.70
2018-05-01T03:30:25.304Z,2.30
2018-05-01T03:35:27.574Z,1.87
2018-05-01T03:40:29.854Z,1.87
2018-05-01T03:45:32.163Z,1.50
2018-05-01T03:50:34.427Z,1.58
2018-05-01T03:55:37.010Z,1.73
2018-05-01T04:00:39.608Z,1.70
2018-05-01T04:05:41.873Z,1.90
2018-05-01T04:10:44.903Z,2.78
2018-05-01T04:15:47.163Z,2.10
2018-05-01T04:20:50.644Z,2.33
2018-05-01T04:25:53.655Z,2.80
2018-05-01T04:30:56.690Z,2.00
2018-05-01T04:35:58.965Z,2.00
2018-05-01T04:41:01.265Z,2.10
2018-05-01T04:46:03.521Z,2.53
2018-05-01T04:51:05.793Z,2.10
2018-05-01T04:56:08.950Z,1.90
2018-05-01T05:01:11.223Z,2.10
2018-05-01T05:06:14.261Z,1.80
2018-05-01T05:11:16.499Z,1.90
2018-05-01T05:16:18.756Z,1.80
2018-05-01T05:21:21.803Z,1.80
2018-05-01T05:26:24.079Z,1.80
2018-05-01T05:31:26.376Z,4.20
2018-05-01T05:36:28.649Z,2.20
2018-05-01T05:41:31.710Z,1.70
2018-05-01T05:46:33.987Z,2.00
2018-05-01T05:51:36.483Z,1.90
2018-05-01T05:56:38.789Z,1.98
2018-05-01T06:01:43.213Z,1.87
2018-05-01T06:06:47.749Z,2.00
2018-05-01T06:11:50.856Z,2.10
2018-05-01T06:16:54.439Z,2.10
2018-05-01T06:21:56.785Z,2.30
2018-05-01T06:26:59.372Z,2.20
2018-05-01T06:32:01.648Z,2.33
2018-05-01T06:37:03.949Z,2.28
2018-05-01T06:42:07.095Z,2.37
2018-05-01T06:47:10.454Z,2.80
2018-05-01T06:52:12.749Z,3.10
2018-05-01T06:57:15.000Z,2.50
2018-05-01T07:02:18.246Z,2.10
2018-05-01T07:07:22.862Z,3.00
2018-05-01T07:12:26.594Z,2.10
2018-05-01T07:17:28.900Z,2.50
2018-05-01T07:22:33.567Z,2.78
2018-05-01T07:27:37.161Z,2.40
2018-05-01T07:32:40.231Z,2.95
2018-05-01T07:37:42.531Z,2.40
2018-05-01T07:42:44.787Z,2.30
2018-05-01T07:47:47.040Z,2.80
2018-05-01T07:52:50.072Z,3.00
2018-05-01T07:57:53.998Z,2.50
2018-05-01T08:02:56.325Z,2.80
2018-05-01T08:07:58.613Z,2.40
2018-05-01T08:13:00.948Z,2.60
2018-05-01T08:18:03.269Z,3.62
2018-05-01T08:23:06.991Z,2.78
2018-05-01T08:28:09.633Z,2.73
2018-05-01T08:33:12.697Z,2.80
2018-05-01T08:38:15.014Z,2.22
2018-05-01T08:43:18.130Z,2.45
2018-05-01T08:48:22.155Z,3.37
2018-05-01T08:53:24.456Z,2.53
2018-05-01T08:58:30.894Z,3.75
2018-05-01T09:03:33.814Z,2.00
2018-05-01T09:08:36.880Z,1.98
2018-05-01T09:13:39.167Z,1.60
2018-05-01T09:18:41.447Z,1.42
2018-05-01T09:23:44.308Z,1.58
2018-05-01T09:28:47.383Z,1.30
2018-05-01T09:33:49.665Z,2.00
2018-05-01T09:38:58.000Z,2.20
2018-05-01T09:44:00.261Z,3.20
2018-05-01T09:49:03.374Z,1.70
2018-05-01T09:54:06.554Z,1.60
2018-05-01T09:59:31.021Z,3.90
2018-05-01T10:21:01.940Z,2.40
2018-05-01T10:26:11.024Z,1.60
2018-05-01T10:31:21.779Z,1.92
2018-05-01T10:47:08.104Z,2.90
2018-05-01T10:52:10.959Z,1.90
2018-05-01T10:57:13.939Z,2.00
2018-05-01T11:02:18.510Z,3.30
2018-05-01T11:07:25.442Z,3.08
2018-05-01T11:12:28.638Z,2.33
2018-05-01T11:17:35.247Z,2.55
2018-05-01T11:22:38.719Z,2.40
2018-05-01T11:27:41.571Z,2.30
2018-05-01T11:32:44.873Z,4.87
2018-05-01T11:37:47.892Z,2.50
2018-05-01T11:42:51.389Z,2.95
2018-05-01T11:47:54.657Z,3.58
2018-05-01T11:52:58.240Z,4.60
2018-05-01T11:58:02.198Z,2.83
2018-05-01T12:03:07.359Z,3.33
2018-05-01T12:08:11.356Z,4.57
2018-05-01T12:13:14.152Z,3.03
2018-05-01T12:18:17.055Z,2.60
2018-05-01T12:23:19.877Z,4.12
2018-05-01T12:28:24.320Z,2.53
2018-05-01T12:33:27.819Z,2.78
2018-05-01T12:38:30.757Z,3.92
2018-05-01T12:43:33.543Z,3.92
2018-05-01T12:48:36.382Z,3.83
2018-05-01T13:45:28.561Z,5.00
2018-05-01T13:50:33.910Z,4.80
2018-05-01T13:55:50.321Z,3.33
2018-05-01T14:00:56.640Z,3.75
2018-05-01T14:06:03.601Z,4.20
2018-05-01T14:11:09.664Z,4.35
2018-05-01T14:16:20.704Z,4.00
2018-05-01T14:21:25.941Z,3.50
2018-05-01T14:26:29.031Z,7.68
2018-05-01T14:36:51.256Z,4.70
2018-05-01T14:42:00.240Z,3.90
2018-05-01T14:52:15.354Z,4.00
2018-05-01T14:57:18.923Z,5.90
2018-05-01T15:02:23.454Z,7.55
2018-05-01T15:07:26.661Z,6.07
2018-05-01T15:17:39.618Z,3.47
2018-05-01T15:22:43.366Z,4.77
2018-05-01T15:27:50.677Z,5.67
2018-05-01T15:32:54.777Z,3.58
2018-05-01T15:43:08.123Z,4.25
2018-05-01T15:48:11.732Z,5.30
2018-05-01T15:53:15.476Z,4.87
2018-05-01T15:58:18.371Z,6.70
2018-05-01T16:03:25.182Z,4.20
2018-05-01T16:08:29.012Z,5.00
2018-05-01T16:13:33.556Z,4.87
2018-05-01T16:18:42.376Z,3.90
2018-05-01T16:28:54.176Z,4.27
2018-05-01T16:33:57.596Z,4.15
2018-05-01T16:39:02.774Z,3.10
2018-05-01T16:44:07.138Z,3.37
2018-05-01T16:49:11.126Z,4.22
2018-05-01T16:54:17.657Z,4.45
2018-05-01T16:59:22.890Z,3.40
2018-05-01T17:04:26.689Z,5.50
2018-05-01T17:14:49.711Z,3.77
2018-05-01T17:19:53.329Z,4.72
2018-05-01T17:30:04.028Z,3.90
2018-05-01T17:35:07.705Z,3.75
2018-05-01T17:40:10.605Z,5.85
2018-05-01T18:24:02.035Z,2.42
2018-05-01T18:29:06.823Z,4.70
2018-05-01T18:34:10.064Z,3.50
2018-05-01T18:39:13.364Z,4.12
2018-05-01T18:44:16.200Z,6.53
2018-05-01T18:49:19.762Z,3.70
2018-05-01T18:54:22.819Z,11.80
2018-05-01T18:59:26.382Z,5.50
2018-05-01T19:04:29.259Z,5.43
2018-05-01T19:09:33.235Z,5.60
2018-05-01T19:14:36.119Z,6.83
2018-05-01T19:19:39.976Z,3.60
2018-05-01T19:24:43.899Z,11.12
2018-05-01T19:29:46.701Z,26.58
2018-05-01T19:35:02.888Z,19.35
2018-05-01T19:40:14.346Z,18.17
2018-05-01T20:01:41.632Z,6.07
2018-05-01T20:23:09.767Z,5.28
2018-05-01T20:44:36.410Z,7.12
2018-05-01T21:56:20.107Z,8.30
2018-05-01T22:01:25.106Z,7.72
2018-05-01T22:06:32.891Z,7.85
2018-05-01T22:17:03.503Z,8.57
2018-05-01T22:22:07.157Z,7.50
2018-05-01T22:27:12.757Z,7.72
2018-05-01T22:32:17.273Z,9.60
2018-05-01T22:37:22.869Z,8.20
2018-05-01T22:42:25.623Z,7.70
2018-05-01T22:47:29.208Z,7.87
2018-05-01T22:52:33.794Z,8.00
2018-05-01T22:57:37.930Z,7.18
2018-05-01T23:02:41.686Z,7.37
2018-05-01T23:07:44.551Z,6.30
2018-05-01T23:12:48.098Z,8.43
2018-05-01T23:23:17.491Z,7.35
2018-05-01T23:28:20.277Z,6.80
2018-05-01T23:33:23.191Z,6.43
2018-05-01T23:38:25.992Z,6.60
2018-05-01T23:43:28.835Z,6.62
2018-05-01T23:48:31.643Z,8.10
2018-05-01T23:53:35.256Z,7.00
2018-05-01T23:58:38.055Z,6.70
